METAR Data
IDs: Format: Raw Decoded Include TAF

Data at: 2147 UTC 01 Dec 2021

METAR for:KFIT (Fitchburg Muni, MA, US)
Text:KFIT 012052Z AUTO VRB05KT 10SM FEW044 05/M05 A3011 RMK AO2 SLP200 T00501050 51014
Temperature: 5.0°C ( 41°F)
Dewpoint: -5.0°C ( 23°F) [RH = 48%]
Pressure (altimeter):30.11 inches Hg (1019.7 mb) [Sea level pressure: 1020.0 mb]
Winds:variable direction winds at 6 MPH (5 knots; 2.6 m/s)
Visibility:10 or more sm (16+ km)
Ceiling:at least 12,000 feet AGL
Clouds: few clouds at 4400 feet AGL
QC Flag:automated observation with no human augmentation